sensor_id;sensor_type;location;lat;lon;timestamp;temperature;humidity
12815;DHT22;6472;52.328;13.070;2023-02-28T00:00:19;-1.20;99.90
12815;DHT22;6472;52.328;13.070;2023-02-28T00:02:48;-1.20;99.90
12815;DHT22;6472;52.328;13.070;2023-02-28T00:05:18;-1.20;99.90
12815;DHT22;6472;52.328;13.070;2023-02-28T00:07:47;-1.20;99.90
12815;DHT22;6472;52.328;13.070;2023-02-28T00:12:49;-1.10;99.90
12815;DHT22;6472;52.328;13.070;2023-02-28T00:15:17;-1.10;99.90
12815;DHT22;6472;52.328;13.070;2023-02-28T00:17:45;-1.10;99.90
12815;DHT22;6472;52.328;13.070;2023-02-28T00:20:13;-1.10;99.90
12815;DHT22;6472;52.328;13.070;2023-02-28T00:22:43;-1.10;99.90
12815;DHT22;6472;52.328;13.070;2023-02-28T00:25:14;-1.00;99.90
12815;DHT22;6472;52.328;13.070;2023-02-28T00:27:43;-1.00;99.90
12815;DHT22;6472;52.328;13.070;2023-02-28T00:30:15;-1.00;99.90
12815;DHT22;6472;52.328;13.070;2023-02-28T00:32:43;-1.00;99.90
12815;DHT22;6472;52.328;13.070;2023-02-28T00:35:12;-1.10;99.90
12815;DHT22;6472;52.328;13.070;2023-02-28T00:37:40;-1.10;99.90
12815;DHT22;6472;52.328;13.070;2023-02-28T00:40:10;-1.00;99.90
12815;DHT22;6472;52.328;13.070;2023-02-28T00:42:39;-1.00;99.90
12815;DHT22;6472;52.328;13.070;2023-02-28T00:45:08;-1.00;99.90
12815;DHT22;6472;52.328;13.070;2023-02-28T00:47:38;-1.10;99.90
12815;DHT22;6472;52.328;13.070;2023-02-28T00:50:07;-1.00;99.90
12815;DHT22;6472;52.328;13.070;2023-02-28T00:52:35;-1.00;99.90
12815;DHT22;6472;52.328;13.070;2023-02-28T00:55:04;-1.00;99.90
12815;DHT22;6472;52.328;13.070;2023-02-28T00:57:32;-1.00;99.90
12815;DHT22;6472;52.328;13.070;2023-02-28T01:00:00;-1.00;99.90
12815;DHT22;6472;52.328;13.070;2023-02-28T01:02:29;-1.00;99.90
12815;DHT22;6472;52.328;13.070;2023-02-28T01:04:58;-1.00;99.90
12815;DHT22;6472;52.328;13.070;2023-02-28T01:07:26;-1.00;99.90
12815;DHT22;6472;52.328;13.070;2023-02-28T01:09:54;-1.00;99.90
12815;DHT22;6472;52.328;13.070;2023-02-28T01:12:22;-1.10;99.90
12815;DHT22;6472;52.328;13.070;2023-02-28T01:14:51;-1.10;99.90
12815;DHT22;6472;52.328;13.070;2023-02-28T01:17:19;-1.10;99.90
12815;DHT22;6472;52.328;13.070;2023-02-28T01:19:47;-1.10;99.90
12815;DHT22;6472;52.328;13.070;2023-02-28T01:22:16;-1.00;99.90
12815;DHT22;6472;52.328;13.070;2023-02-28T01:24:44;-1.00;99.90
12815;DHT22;6472;52.328;13.070;2023-02-28T01:27:14;-1.00;99.90
12815;DHT22;6472;52.328;13.070;2023-02-28T01:29:42;-1.00;99.90
12815;DHT22;6472;52.328;13.070;2023-02-28T01:32:10;-1.10;99.90
12815;DHT22;6472;52.328;13.070;2023-02-28T01:34:38;-1.00;99.90
12815;DHT22;6472;52.328;13.070;2023-02-28T01:37:06;-1.00;99.90
12815;DHT22;6472;52.328;13.070;2023-02-28T01:39:35;-1.10;99.90
12815;DHT22;6472;52.328;13.070;2023-02-28T01:42:04;-1.00;99.90
12815;DHT22;6472;52.328;13.070;2023-02-28T01:44:55;-1.00;99.90
12815;DHT22;6472;52.328;13.070;2023-02-28T01:47:26;-1.10;99.90
12815;DHT22;6472;52.328;13.070;2023-02-28T01:49:55;-1.10;99.90
12815;DHT22;6472;52.328;13.070;2023-02-28T01:52:23;-1.10;99.90
12815;DHT22;6472;52.328;13.070;2023-02-28T01:54:55;-1.10;99.90
12815;DHT22;6472;52.328;13.070;2023-02-28T01:57:28;-1.10;99.90
12815;DHT22;6472;52.328;13.070;2023-02-28T02:00:00;-1.10;99.90
12815;DHT22;6472;52.328;13.070;2023-02-28T02:02:29;-1.20;99.90
12815;DHT22;6472;52.328;13.070;2023-02-28T02:05:04;-1.20;99.90
12815;DHT22;6472;52.328;13.070;2023-02-28T02:07:35;-1.20;99.90
12815;DHT22;6472;52.328;13.070;2023-02-28T02:10:10;-1.20;99.90
12815;DHT22;6472;52.328;13.070;2023-02-28T02:13:05;-1.20;99.90
12815;DHT22;6472;52.328;13.070;2023-02-28T02:15:40;-1.20;99.90
12815;DHT22;6472;52.328;13.070;2023-02-28T02:18:14;-1.30;99.90
12815;DHT22;6472;52.328;13.070;2023-02-28T02:26:53;-1.30;99.90
12815;DHT22;6472;52.328;13.070;2023-02-28T02:29:46;-1.30;99.90
12815;DHT22;6472;52.328;13.070;2023-02-28T02:32:44;-1.30;99.90
12815;DHT22;6472;52.328;13.070;2023-02-28T02:35:21;-1.40;99.90
12815;DHT22;6472;52.328;13.070;2023-02-28T02:37:57;-1.40;99.90
12815;DHT22;6472;52.328;13.070;2023-02-28T02:40:32;-1.40;99.90
12815;DHT22;6472;52.328;13.070;2023-02-28T02:43:06;-1.40;99.90
12815;DHT22;6472;52.328;13.070;2023-02-28T02:45:39;-1.40;99.90
12815;DHT22;6472;52.328;13.070;2023-02-28T02:48:12;-1.40;99.90
12815;DHT22;6472;52.328;13.070;2023-02-28T02:50:47;-1.50;99.90
12815;DHT22;6472;52.328;13.070;2023-02-28T02:53:18;-1.50;99.90
12815;DHT22;6472;52.328;13.070;2023-02-28T02:55:51;-1.60;99.90
12815;DHT22;6472;52.328;13.070;2023-02-28T02:58:25;-1.60;99.90
12815;DHT22;6472;52.328;13.070;2023-02-28T03:00:56;-1.70;99.90
12815;DHT22;6472;52.328;13.070;2023-02-28T03:03:26;-1.80;99.90
12815;DHT22;6472;52.328;13.070;2023-02-28T03:05:59;-1.80;99.90
12815;DHT22;6472;52.328;13.070;2023-02-28T03:08:30;-1.90;99.90
12815;DHT22;6472;52.328;13.070;2023-02-28T03:11:03;-2.00;99.90
12815;DHT22;6472;52.328;13.070;2023-02-28T03:13:42;-2.10;99.90
12815;DHT22;6472;52.328;13.070;2023-02-28T03:19:20;-2.40;99.90
12815;DHT22;6472;52.328;13.070;2023-02-28T03:22:00;-2.40;99.90
12815;DHT22;6472;52.328;13.070;2023-02-28T03:24:36;-2.60;99.90
12815;DHT22;6472;52.328;13.070;2023-02-28T03:27:11;-2.60;99.90
12815;DHT22;6472;52.328;13.070;2023-02-28T03:29:44;-2.70;99.90
12815;DHT22;6472;52.328;13.070;2023-02-28T03:32:17;-2.80;99.90
12815;DHT22;6472;52.328;13.070;2023-02-28T03:34:55;-2.80;99.90
12815;DHT22;6472;52.328;13.070;2023-02-28T03:37:27;-2.90;99.90
12815;DHT22;6472;52.328;13.070;2023-02-28T03:39:58;-3.00;99.90
12815;DHT22;6472;52.328;13.070;2023-02-28T03:42:29;-3.00;99.90
12815;DHT22;6472;52.328;13.070;2023-02-28T03:45:02;-3.10;99.90
12815;DHT22;6472;52.328;13.070;2023-02-28T03:47:37;-3.10;99.90
12815;DHT22;6472;52.328;13.070;2023-02-28T03:50:10;-3.20;99.90
12815;DHT22;6472;52.328;13.070;2023-02-28T03:52:44;-3.20;99.90
12815;DHT22;6472;52.328;13.070;2023-02-28T03:55:15;-3.30;99.90
12815;DHT22;6472;52.328;13.070;2023-02-28T03:57:52;-3.30;99.90
12815;DHT22;6472;52.328;13.070;2023-02-28T04:00:28;-3.40;99.90
12815;DHT22;6472;52.328;13.070;2023-02-28T04:02:57;-3.40;99.90
12815;DHT22;6472;52.328;13.070;2023-02-28T04:05:27;-3.40;99.90
12815;DHT22;6472;52.328;13.070;2023-02-28T04:08:03;-3.50;99.90
12815;DHT22;6472;52.328;13.070;2023-02-28T04:10:31;-3.50;99.90
12815;DHT22;6472;52.328;13.070;2023-02-28T04:12:59;-3.50;99.90
12815;DHT22;6472;52.328;13.070;2023-02-28T04:15:27;-3.60;99.90
12815;DHT22;6472;52.328;13.070;2023-02-28T04:17:56;-3.60;99.90
12815;DHT22;6472;52.328;13.070;2023-02-28T04:20:24;-3.60;99.90
12815;DHT22;6472;52.328;13.070;2023-02-28T04:22:52;-3.70;99.90
12815;DHT22;6472;52.328;13.070;2023-02-28T04:25:22;-3.70;99.90
12815;DHT22;6472;52.328;13.070;2023-02-28T04:27:50;-3.70;99.90
12815;DHT22;6472;52.328;13.070;2023-02-28T04:30:18;-3.80;99.90
12815;DHT22;6472;52.328;13.070;2023-02-28T04:32:46;-3.80;99.90
12815;DHT22;6472;52.328;13.070;2023-02-28T04:35:14;-3.90;99.90
12815;DHT22;6472;52.328;13.070;2023-02-28T04:37:42;-3.90;99.90
12815;DHT22;6472;52.328;13.070;2023-02-28T04:40:11;-4.00;99.90
12815;DHT22;6472;52.328;13.070;2023-02-28T04:42:41;-4.00;99.90
12815;DHT22;6472;52.328;13.070;2023-02-28T04:45:10;-4.00;99.90
12815;DHT22;6472;52.328;13.070;2023-02-28T04:47:38;-4.00;99.90
12815;DHT22;6472;52.328;13.070;2023-02-28T04:50:06;-4.00;99.90
12815;DHT22;6472;52.328;13.070;2023-02-28T04:52:35;-4.10;99.90
12815;DHT22;6472;52.328;13.070;2023-02-28T04:55:04;-4.10;99.90
12815;DHT22;6472;52.328;13.070;2023-02-28T04:57:33;-4.10;99.90
12815;DHT22;6472;52.328;13.070;2023-02-28T05:00:03;-4.20;99.90
12815;DHT22;6472;52.328;13.070;2023-02-28T05:02:34;-4.20;99.90
12815;DHT22;6472;52.328;13.070;2023-02-28T05:05:02;-4.20;99.90
12815;DHT22;6472;52.328;13.070;2023-02-28T05:07:31;-4.30;99.90
12815;DHT22;6472;52.328;13.070;2023-02-28T05:09:59;-4.30;99.90
12815;DHT22;6472;52.328;13.070;2023-02-28T05:12:28;-4.30;99.90
12815;DHT22;6472;52.328;13.070;2023-02-28T05:14:56;-4.40;99.90
12815;DHT22;6472;52.328;13.070;2023-02-28T05:17:25;-4.40;99.90
12815;DHT22;6472;52.328;13.070;2023-02-28T05:19:53;-4.50;99.90
12815;DHT22;6472;52.328;13.070;2023-02-28T05:22:32;-4.50;99.90
12815;DHT22;6472;52.328;13.070;2023-02-28T05:25:00;-4.50;99.90
12815;DHT22;6472;52.328;13.070;2023-02-28T05:27:28;-4.50;99.90
12815;DHT22;6472;52.328;13.070;2023-02-28T05:29:56;-4.60;99.90
12815;DHT22;6472;52.328;13.070;2023-02-28T05:32:27;-4.60;99.90
12815;DHT22;6472;52.328;13.070;2023-02-28T05:34:55;-4.60;99.90
12815;DHT22;6472;52.328;13.070;2023-02-28T05:37:24;-4.70;99.90
12815;DHT22;6472;52.328;13.070;2023-02-28T05:39:52;-4.60;99.90
12815;DHT22;6472;52.328;13.070;2023-02-28T05:42:20;-4.70;99.90
12815;DHT22;6472;52.328;13.070;2023-02-28T05:44:48;-4.90;99.90
12815;DHT22;6472;52.328;13.070;2023-02-28T05:47:17;-4.70;99.90
12815;DHT22;6472;52.328;13.070;2023-02-28T05:49:47;-4.70;99.90
12815;DHT22;6472;52.328;13.070;2023-02-28T05:52:15;-4.70;99.90
12815;DHT22;6472;52.328;13.070;2023-02-28T05:54:43;-4.80;99.90
12815;DHT22;6472;52.328;13.070;2023-02-28T05:57:11;-4.80;99.90
12815;DHT22;6472;52.328;13.070;2023-02-28T05:59:50;-4.90;99.90
12815;DHT22;6472;52.328;13.070;2023-02-28T06:02:18;-4.90;99.90
12815;DHT22;6472;52.328;13.070;2023-02-28T06:04:47;-4.90;99.90
12815;DHT22;6472;52.328;13.070;2023-02-28T06:07:15;-4.80;99.90
12815;DHT22;6472;52.328;13.070;2023-02-28T06:09:44;-4.80;99.90
12815;DHT22;6472;52.328;13.070;2023-02-28T06:12:12;-4.80;99.90
12815;DHT22;6472;52.328;13.070;2023-02-28T06:14:40;-4.80;99.90
12815;DHT22;6472;52.328;13.070;2023-02-28T06:17:09;-4.80;99.90
12815;DHT22;6472;52.328;13.070;2023-02-28T06:19:37;-4.80;99.90
12815;DHT22;6472;52.328;13.070;2023-02-28T06:22:09;-4.80;99.90
12815;DHT22;6472;52.328;13.070;2023-02-28T06:24:37;-4.70;99.90
12815;DHT22;6472;52.328;13.070;2023-02-28T06:27:05;-4.70;99.90
12815;DHT22;6472;52.328;13.070;2023-02-28T06:29:34;-4.70;99.90
12815;DHT22;6472;52.328;13.070;2023-02-28T06:32:06;-4.70;99.90
12815;DHT22;6472;52.328;13.070;2023-02-28T06:34:34;-4.70;99.90
12815;DHT22;6472;52.328;13.070;2023-02-28T06:37:03;-4.70;99.90
12815;DHT22;6472;52.328;13.070;2023-02-28T06:39:33;-4.50;99.90
12815;DHT22;6472;52.328;13.070;2023-02-28T06:42:01;-4.60;99.90
12815;DHT22;6472;52.328;13.070;2023-02-28T06:44:29;-4.60;99.90
12815;DHT22;6472;52.328;13.070;2023-02-28T06:47:02;-4.60;99.90
12815;DHT22;6472;52.328;13.070;2023-02-28T06:49:31;-4.50;99.90
12815;DHT22;6472;52.328;13.070;2023-02-28T06:52:00;-4.40;99.90
12815;DHT22;6472;52.328;13.070;2023-02-28T06:54:28;-4.40;99.90
12815;DHT22;6472;52.328;13.070;2023-02-28T06:56:58;-4.40;99.90
12815;DHT22;6472;52.328;13.070;2023-02-28T06:59:26;-4.30;99.90
12815;DHT22;6472;52.328;13.070;2023-02-28T07:01:54;-4.30;99.90
12815;DHT22;6472;52.328;13.070;2023-02-28T07:04:23;-4.20;99.90
12815;DHT22;6472;52.328;13.070;2023-02-28T07:06:51;-4.10;99.90
12815;DHT22;6472;52.328;13.070;2023-02-28T07:09:19;-4.10;99.90
12815;DHT22;6472;52.328;13.070;2023-02-28T07:11:47;-4.00;99.90
12815;DHT22;6472;52.328;13.070;2023-02-28T07:14:17;-3.90;99.90
12815;DHT22;6472;52.328;13.070;2023-02-28T07:16:45;-3.80;99.90
12815;DHT22;6472;52.328;13.070;2023-02-28T07:19:13;-3.80;99.90
12815;DHT22;6472;52.328;13.070;2023-02-28T07:21:40;-3.70;99.90
12815;DHT22;6472;52.328;13.070;2023-02-28T07:24:08;-3.60;99.90
12815;DHT22;6472;52.328;13.070;2023-02-28T07:26:37;-3.50;99.90
12815;DHT22;6472;52.328;13.070;2023-02-28T07:29:05;-3.40;99.90
12815;DHT22;6472;52.328;13.070;2023-02-28T07:31:34;-3.40;99.90
12815;DHT22;6472;52.328;13.070;2023-02-28T07:34:02;-3.20;99.90
12815;DHT22;6472;52.328;13.070;2023-02-28T07:36:30;-3.20;99.90
12815;DHT22;6472;52.328;13.070;2023-02-28T07:38:58;-3.10;99.90
12815;DHT22;6472;52.328;13.070;2023-02-28T07:41:26;-3.00;99.90
12815;DHT22;6472;52.328;13.070;2023-02-28T07:43:57;-2.80;99.90
12815;DHT22;6472;52.328;13.070;2023-02-28T07:46:26;-2.70;99.90
12815;DHT22;6472;52.328;13.070;2023-02-28T07:48:58;-2.60;99.90
12815;DHT22;6472;52.328;13.070;2023-02-28T07:51:26;-2.40;99.90
12815;DHT22;6472;52.328;13.070;2023-02-28T07:53:55;-2.30;99.90
12815;DHT22;6472;52.328;13.070;2023-02-28T07:56:23;-2.10;99.90
12815;DHT22;6472;52.328;13.070;2023-02-28T07:58:51;-2.00;99.90
12815;DHT22;6472;52.328;13.070;2023-02-28T08:01:19;-1.80;99.90
12815;DHT22;6472;52.328;13.070;2023-02-28T08:03:47;-1.70;99.90
12815;DHT22;6472;52.328;13.070;2023-02-28T08:06:18;-1.50;99.90
12815;DHT22;6472;52.328;13.070;2023-02-28T08:08:47;-1.20;99.90
12815;DHT22;6472;52.328;13.070;2023-02-28T08:11:16;-1.10;99.90
12815;DHT22;6472;52.328;13.070;2023-02-28T08:13:45;-0.90;99.90
12815;DHT22;6472;52.328;13.070;2023-02-28T08:16:14;-0.60;99.90
12815;DHT22;6472;52.328;13.070;2023-02-28T08:18:44;0.00;99.90
12815;DHT22;6472;52.328;13.070;2023-02-28T08:21:12;0.80;99.90
12815;DHT22;6472;52.328;13.070;2023-02-28T08:23:42;1.60;99.90
12815;DHT22;6472;52.328;13.070;2023-02-28T08:26:09;2.30;99.90
12815;DHT22;6472;52.328;13.070;2023-02-28T08:28:38;2.90;99.90
12815;DHT22;6472;52.328;13.070;2023-02-28T08:31:09;3.60;99.90
12815;DHT22;6472;52.328;13.070;2023-02-28T08:33:38;4.20;99.90
12815;DHT22;6472;52.328;13.070;2023-02-28T08:36:08;4.90;99.90
12815;DHT22;6472;52.328;13.070;2023-02-28T08:38:37;5.50;99.90
12815;DHT22;6472;52.328;13.070;2023-02-28T08:41:08;5.90;95.30
12815;DHT22;6472;52.328;13.070;2023-02-28T08:43:37;6.10;93.70
12815;DHT22;6472;52.328;13.070;2023-02-28T08:46:06;6.40;94.80
12815;DHT22;6472;52.328;13.070;2023-02-28T08:48:35;6.70;94.90
12815;DHT22;6472;52.328;13.070;2023-02-28T08:51:07;6.90;93.70
12815;DHT22;6472;52.328;13.070;2023-02-28T08:53:36;7.40;91.50
12815;DHT22;6472;52.328;13.070;2023-02-28T08:56:08;7.90;90.20
12815;DHT22;6472;52.328;13.070;2023-02-28T08:58:37;8.20;76.80
12815;DHT22;6472;52.328;13.070;2023-02-28T09:01:10;8.20;83.20
12815;DHT22;6472;52.328;13.070;2023-02-28T09:03:39;7.80;70.30
12815;DHT22;6472;52.328;13.070;2023-02-28T09:06:10;7.70;78.20
12815;DHT22;6472;52.328;13.070;2023-02-28T09:08:38;8.30;76.90
12815;DHT22;6472;52.328;13.070;2023-02-28T09:11:09;8.70;72.00
12815;DHT22;6472;52.328;13.070;2023-02-28T09:13:37;8.50;68.30
12815;DHT22;6472;52.328;13.070;2023-02-28T09:16:08;8.90;70.60
12815;DHT22;6472;52.328;13.070;2023-02-28T09:18:37;8.40;67.50
12815;DHT22;6472;52.328;13.070;2023-02-28T09:21:05;8.30;66.40
12815;DHT22;6472;52.328;13.070;2023-02-28T09:23:34;8.30;70.00
12815;DHT22;6472;52.328;13.070;2023-02-28T09:26:05;8.50;69.00
12815;DHT22;6472;52.328;13.070;2023-02-28T09:28:34;8.20;62.70
12815;DHT22;6472;52.328;13.070;2023-02-28T09:31:02;8.40;66.30
12815;DHT22;6472;52.328;13.070;2023-02-28T09:33:31;8.50;61.70
12815;DHT22;6472;52.328;13.070;2023-02-28T09:36:03;8.60;62.90
12815;DHT22;6472;52.328;13.070;2023-02-28T09:38:31;9.00;62.70
12815;DHT22;6472;52.328;13.070;2023-02-28T09:41:02;9.10;60.50
12815;DHT22;6472;52.328;13.070;2023-02-28T09:43:35;9.20;59.10
12815;DHT22;6472;52.328;13.070;2023-02-28T09:46:10;9.10;59.30
12815;DHT22;6472;52.328;13.070;2023-02-28T09:48:42;8.70;58.40
12815;DHT22;6472;52.328;13.070;2023-02-28T09:51:22;8.80;62.20
12815;DHT22;6472;52.328;13.070;2023-02-28T09:53:55;9.00;62.40
12815;DHT22;6472;52.328;13.070;2023-02-28T09:56:32;8.90;63.40
12815;DHT22;6472;52.328;13.070;2023-02-28T09:59:05;9.00;63.60
12815;DHT22;6472;52.328;13.070;2023-02-28T10:01:42;8.90;58.30
12815;DHT22;6472;52.328;13.070;2023-02-28T10:04:33;8.90;60.30
12815;DHT22;6472;52.328;13.070;2023-02-28T10:07:16;8.60;57.20
12815;DHT22;6472;52.328;13.070;2023-02-28T10:09:53;8.60;58.40
12815;DHT22;6472;52.328;13.070;2023-02-28T10:12:21;8.40;60.10
12815;DHT22;6472;52.328;13.070;2023-02-28T10:14:52;8.50;63.30
12815;DHT22;6472;52.328;13.070;2023-02-28T10:17:25;8.40;59.80
12815;DHT22;6472;52.328;13.070;2023-02-28T10:19:59;8.40;61.00
12815;DHT22;6472;52.328;13.070;2023-02-28T10:22:38;8.40;62.20
12815;DHT22;6472;52.328;13.070;2023-02-28T10:25:18;8.30;63.10
12815;DHT22;6472;52.328;13.070;2023-02-28T10:27:46;8.10;58.50
12815;DHT22;6472;52.328;13.070;2023-02-28T10:30:16;7.50;59.80
12815;DHT22;6472;52.328;13.070;2023-02-28T10:32:49;7.50;63.80
12815;DHT22;6472;52.328;13.070;2023-02-28T10:35:19;7.50;60.90
12815;DHT22;6472;52.328;13.070;2023-02-28T10:37:50;7.60;62.40
12815;DHT22;6472;52.328;13.070;2023-02-28T10:40:33;7.20;61.30
12815;DHT22;6472;52.328;13.070;2023-02-28T10:43:03;7.30;62.10
12815;DHT22;6472;52.328;13.070;2023-02-28T10:45:34;7.20;59.90
12815;DHT22;6472;52.328;13.070;2023-02-28T10:48:06;6.90;62.20
12815;DHT22;6472;52.328;13.070;2023-02-28T10:50:53;7.00;63.70
12815;DHT22;6472;52.328;13.070;2023-02-28T10:53:31;6.80;62.50
12815;DHT22;6472;52.328;13.070;2023-02-28T10:56:21;6.70;63.50
12815;DHT22;6472;52.328;13.070;2023-02-28T10:58:54;6.60;63.20
12815;DHT22;6472;52.328;13.070;2023-02-28T11:01:33;6.40;61.30
12815;DHT22;6472;52.328;13.070;2023-02-28T11:04:03;6.40;64.10
12815;DHT22;6472;52.328;13.070;2023-02-28T11:06:33;6.50;63.90
12815;DHT22;6472;52.328;13.070;2023-02-28T11:09:05;6.50;63.60
12815;DHT22;6472;52.328;13.070;2023-02-28T11:11:43;6.30;63.60
12815;DHT22;6472;52.328;13.070;2023-02-28T11:14:20;6.10;63.90
12815;DHT22;6472;52.328;13.070;2023-02-28T11:16:51;6.00;64.70
12815;DHT22;6472;52.328;13.070;2023-02-28T11:19:23;5.80;64.90
12815;DHT22;6472;52.328;13.070;2023-02-28T11:21:55;5.70;64.50
12815;DHT22;6472;52.328;13.070;2023-02-28T11:24:26;5.60;64.60
12815;DHT22;6472;52.328;13.070;2023-02-28T11:26:56;5.50;67.00
12815;DHT22;6472;52.328;13.070;2023-02-28T11:29:26;5.50;66.30
12815;DHT22;6472;52.328;13.070;2023-02-28T11:32:05;5.50;66.00
12815;DHT22;6472;52.328;13.070;2023-02-28T11:34:41;5.50;64.50
12815;DHT22;6472;52.328;13.070;2023-02-28T11:37:13;5.40;65.50
12815;DHT22;6472;52.328;13.070;2023-02-28T11:39:43;5.30;66.10
12815;DHT22;6472;52.328;13.070;2023-02-28T11:42:34;5.20;66.60
12815;DHT22;6472;52.328;13.070;2023-02-28T11:45:15;5.10;66.80
12815;DHT22;6472;52.328;13.070;2023-02-28T11:47:54;5.10;69.20
12815;DHT22;6472;52.328;13.070;2023-02-28T11:50:44;5.10;68.70
12815;DHT22;6472;52.328;13.070;2023-02-28T11:53:21;5.00;67.90
12815;DHT22;6472;52.328;13.070;2023-02-28T11:55:57;5.00;67.20
12815;DHT22;6472;52.328;13.070;2023-02-28T11:58:42;5.00;67.90
12815;DHT22;6472;52.328;13.070;2023-02-28T12:01:26;5.10;68.50
12815;DHT22;6472;52.328;13.070;2023-02-28T12:04:09;5.20;68.10
12815;DHT22;6472;52.328;13.070;2023-02-28T12:06:45;5.20;67.40
12815;DHT22;6472;52.328;13.070;2023-02-28T12:09:30;5.20;68.00
12815;DHT22;6472;52.328;13.070;2023-02-28T12:12:07;5.10;67.30
12815;DHT22;6472;52.328;13.070;2023-02-28T12:14:53;5.20;67.50
12815;DHT22;6472;52.328;13.070;2023-02-28T12:17:32;5.40;68.10
12815;DHT22;6472;52.328;13.070;2023-02-28T12:20:18;5.40;67.20
12815;DHT22;6472;52.328;13.070;2023-02-28T12:22:55;5.40;66.30
12815;DHT22;6472;52.328;13.070;2023-02-28T12:25:55;5.40;65.60
12815;DHT22;6472;52.328;13.070;2023-02-28T12:28:32;5.40;66.60
12815;DHT22;6472;52.328;13.070;2023-02-28T12:31:04;5.40;65.20
12815;DHT22;6472;52.328;13.070;2023-02-28T12:33:38;5.50;67.00
12815;DHT22;6472;52.328;13.070;2023-02-28T12:36:13;5.60;69.10
12815;DHT22;6472;52.328;13.070;2023-02-28T12:38:45;5.60;66.10
12815;DHT22;6472;52.328;13.070;2023-02-28T12:41:17;5.60;66.10
12815;DHT22;6472;52.328;13.070;2023-02-28T12:43:52;5.60;65.10
12815;DHT22;6472;52.328;13.070;2023-02-28T12:46:27;5.60;65.50
12815;DHT22;6472;52.328;13.070;2023-02-28T12:48:58;5.60;67.00
12815;DHT22;6472;52.328;13.070;2023-02-28T12:51:28;5.70;64.40
12815;DHT22;6472;52.328;13.070;2023-02-28T12:54:04;5.60;66.30
12815;DHT22;6472;52.328;13.070;2023-02-28T12:56:38;5.60;66.40
12815;DHT22;6472;52.328;13.070;2023-02-28T12:59:16;5.40;66.30
12815;DHT22;6472;52.328;13.070;2023-02-28T13:05:00;5.70;67.60
12815;DHT22;6472;52.328;13.070;2023-02-28T13:10:40;5.80;63.90
12815;DHT22;6472;52.328;13.070;2023-02-28T13:13:15;5.70;63.90
12815;DHT22;6472;52.328;13.070;2023-02-28T13:16:00;5.60;66.90
12815;DHT22;6472;52.328;13.070;2023-02-28T13:18:37;5.70;64.40
12815;DHT22;6472;52.328;13.070;2023-02-28T13:21:07;5.70;66.50
12815;DHT22;6472;52.328;13.070;2023-02-28T13:23:40;5.60;65.40
12815;DHT22;6472;52.328;13.070;2023-02-28T13:29:30;5.40;66.80
12815;DHT22;6472;52.328;13.070;2023-02-28T13:38:23;5.50;66.90
12815;DHT22;6472;52.328;13.070;2023-02-28T13:40:51;5.50;68.50
12815;DHT22;6472;52.328;13.070;2023-02-28T13:43:19;5.50;67.10
12815;DHT22;6472;52.328;13.070;2023-02-28T13:46:11;5.60;67.80
12815;DHT22;6472;52.328;13.070;2023-02-28T13:48:41;5.60;65.80
12815;DHT22;6472;52.328;13.070;2023-02-28T13:51:40;5.60;66.60
12815;DHT22;6472;52.328;13.070;2023-02-28T13:54:28;5.40;67.70
12815;DHT22;6472;52.328;13.070;2023-02-28T13:57:15;5.40;67.90
12815;DHT22;6472;52.328;13.070;2023-02-28T14:00:00;5.40;68.80
12815;DHT22;6472;52.328;13.070;2023-02-28T14:02:45;5.40;67.00
12815;DHT22;6472;52.328;13.070;2023-02-28T14:05:15;5.20;68.10
12815;DHT22;6472;52.328;13.070;2023-02-28T14:07:47;5.30;68.30
12815;DHT22;6472;52.328;13.070;2023-02-28T14:10:24;5.20;68.40
12815;DHT22;6472;52.328;13.070;2023-02-28T14:12:59;5.10;68.10
12815;DHT22;6472;52.328;13.070;2023-02-28T14:18:33;5.10;66.80
12815;DHT22;6472;52.328;13.070;2023-02-28T14:21:10;4.90;67.70
12815;DHT22;6472;52.328;13.070;2023-02-28T14:24:01;5.00;68.00
12815;DHT22;6472;52.328;13.070;2023-02-28T14:29:43;5.00;69.10
12815;DHT22;6472;52.328;13.070;2023-02-28T14:32:22;4.90;70.40
12815;DHT22;6472;52.328;13.070;2023-02-28T14:35:02;4.90;69.50
12815;DHT22;6472;52.328;13.070;2023-02-28T14:37:36;4.90;67.10
12815;DHT22;6472;52.328;13.070;2023-02-28T14:40:12;4.80;67.70
12815;DHT22;6472;52.328;13.070;2023-02-28T14:42:47;4.70;68.20
12815;DHT22;6472;52.328;13.070;2023-02-28T14:45:19;4.80;68.60
12815;DHT22;6472;52.328;13.070;2023-02-28T14:47:49;4.80;68.50
12815;DHT22;6472;52.328;13.070;2023-02-28T14:50:20;4.90;69.10
12815;DHT22;6472;52.328;13.070;2023-02-28T14:52:52;4.80;68.90
12815;DHT22;6472;52.328;13.070;2023-02-28T14:55:24;4.70;68.70
12815;DHT22;6472;52.328;13.070;2023-02-28T14:57:56;4.60;69.30
12815;DHT22;6472;52.328;13.070;2023-02-28T15:00:26;4.70;68.90
12815;DHT22;6472;52.328;13.070;2023-02-28T15:02:56;4.60;69.20
12815;DHT22;6472;52.328;13.070;2023-02-28T15:05:27;4.70;69.50
12815;DHT22;6472;52.328;13.070;2023-02-28T15:08:04;4.60;69.60
12815;DHT22;6472;52.328;13.070;2023-02-28T15:10:33;4.50;69.20
12815;DHT22;6472;52.328;13.070;2023-02-28T15:13:05;4.50;71.50
12815;DHT22;6472;52.328;13.070;2023-02-28T15:15:41;4.40;71.00
12815;DHT22;6472;52.328;13.070;2023-02-28T15:18:35;4.50;70.40
12815;DHT22;6472;52.328;13.070;2023-02-28T15:21:07;4.50;71.00
12815;DHT22;6472;52.328;13.070;2023-02-28T15:23:41;4.50;70.80
12815;DHT22;6472;52.328;13.070;2023-02-28T15:26:13;4.50;71.20
12815;DHT22;6472;52.328;13.070;2023-02-28T15:28:43;4.50;70.60
12815;DHT22;6472;52.328;13.070;2023-02-28T15:31:26;4.40;71.10
12815;DHT22;6472;52.328;13.070;2023-02-28T15:33:55;4.30;70.10
12815;DHT22;6472;52.328;13.070;2023-02-28T15:36:26;4.20;73.10
12815;DHT22;6472;52.328;13.070;2023-02-28T15:38:55;4.20;72.80
12815;DHT22;6472;52.328;13.070;2023-02-28T15:42:19;4.10;72.90
12815;DHT22;6472;52.328;13.070;2023-02-28T15:44:54;4.10;73.20
12815;DHT22;6472;52.328;13.070;2023-02-28T15:47:26;4.00;73.60
12815;DHT22;6472;52.328;13.070;2023-02-28T15:49:57;3.90;75.10
12815;DHT22;6472;52.328;13.070;2023-02-28T15:52:29;3.80;75.30
12815;DHT22;6472;52.328;13.070;2023-02-28T15:55:08;3.70;75.70
12815;DHT22;6472;52.328;13.070;2023-02-28T15:57:39;3.60;75.90
12815;DHT22;6472;52.328;13.070;2023-02-28T16:00:13;3.60;76.30
12815;DHT22;6472;52.328;13.070;2023-02-28T16:02:44;3.50;76.30
12815;DHT22;6472;52.328;13.070;2023-02-28T16:05:19;3.40;76.70
12815;DHT22;6472;52.328;13.070;2023-02-28T16:07:54;3.30;78.50
12815;DHT22;6472;52.328;13.070;2023-02-28T16:10:24;3.20;78.90
12815;DHT22;6472;52.328;13.070;2023-02-28T16:12:53;3.10;81.10
12815;DHT22;6472;52.328;13.070;2023-02-28T16:15:26;2.90;81.90
12815;DHT22;6472;52.328;13.070;2023-02-28T16:17:56;2.70;84.10
12815;DHT22;6472;52.328;13.070;2023-02-28T16:20:26;2.50;85.50
12815;DHT22;6472;52.328;13.070;2023-02-28T16:22:54;2.30;87.90
12815;DHT22;6472;52.328;13.070;2023-02-28T16:25:29;2.10;89.00
12815;DHT22;6472;52.328;13.070;2023-02-28T16:28:01;1.90;90.20
12815;DHT22;6472;52.328;13.070;2023-02-28T16:30:31;1.70;91.00
12815;DHT22;6472;52.328;13.070;2023-02-28T16:32:59;1.60;91.50
12815;DHT22;6472;52.328;13.070;2023-02-28T16:35:27;1.40;92.30
12815;DHT22;6472;52.328;13.070;2023-02-28T16:37:55;1.30;93.20
12815;DHT22;6472;52.328;13.070;2023-02-28T16:40:24;1.00;94.40
12815;DHT22;6472;52.328;13.070;2023-02-28T16:42:58;0.90;95.10